Time;durP1;ratioP1;P1;durP2;ratioP2;P2;SDS_P1;SDS_P2;PMS_P1;PMS_P2;Temp;Humidity;BMP_temperature;BMP_pressure;BME280_temperature;BME280_humidity;BME280_pressure;Samples;Min_cycle;Max_cycle;Signal;HPM_P1;HPM_P2
2021/04/20 00:01:27;;;;;;;21.73;15.38;;;7.90;99.90;;;;;;5053241;28;20119;-68
2021/04/20 00:03:54;;;;;;;22.98;15.60;;;7.90;99.90;;;;;;5046507;28;20403;-67
2021/04/20 00:06:21;;;;;;;23.20;15.98;;;7.90;99.90;;;;;;5050155;28;20214;-68
2021/04/20 00:08:48;;;;;;;24.35;15.30;;;7.90;99.90;;;;;;5043114;28;20590;-67
2021/04/20 00:11:15;;;;;;;22.65;16.27;;;7.90;99.90;;;;;;5041437;28;20519;-68
2021/04/20 00:13:42;;;;;;;25.00;16.33;;;7.90;99.90;;;;;;5041860;28;20045;-68
2021/04/20 00:16:08;;;;;;;26.95;16.45;;;7.90;99.90;;;;;;5040291;28;20056;-68
2021/04/20 00:18:35;;;;;;;26.50;17.23;;;7.90;99.90;;;;;;5045773;28;20045;-68
2021/04/20 00:21:03;;;;;;;24.70;15.02;;;7.90;99.90;;;;;;5046513;28;20049;-68
2021/04/20 00:23:30;;;;;;;30.67;18.10;;;7.90;99.90;;;;;;5052024;28;20457;-68
2021/04/20 00:26:00;;;;;;;27.13;16.42;;;7.90;99.90;;;;;;5049286;28;20083;-68
2021/04/20 00:28:28;;;;;;;23.27;16.00;;;7.90;99.90;;;;;;5051420;28;20048;-68
2021/04/20 00:31:06;;;;;;;23.05;16.45;;;7.80;99.90;;;;;;5049439;28;20569;-68
2021/04/20 00:33:36;;;;;;;25.95;16.55;;;7.80;99.90;;;;;;5043858;28;20045;-68
2021/04/20 00:36:05;;;;;;;26.17;17.00;;;7.80;99.90;;;;;;5040556;28;20057;-68
2021/04/20 00:38:32;;;;;;;25.42;17.08;;;7.80;99.90;;;;;;5036704;28;20103;-68
2021/04/20 00:41:17;;;;;;;26.10;16.15;;;7.70;99.90;;;;;;5033095;28;20056;-68
2021/04/20 00:43:46;;;;;;;27.35;17.15;;;7.70;99.90;;;;;;5033918;28;20499;-68
2021/04/20 00:46:19;;;;;;;24.55;16.33;;;7.70;99.90;;;;;;5053505;28;20045;-68
2021/04/20 00:48:47;;;;;;;21.70;15.70;;;7.70;99.90;;;;;;5050830;28;20072;-68
2021/04/20 00:51:14;;;;;;;28.48;16.95;;;7.70;99.90;;;;;;5044009;28;20084;-68
2021/04/20 00:53:42;;;;;;;25.45;17.60;;;7.70;99.90;;;;;;5045411;28;20045;-68
2021/04/20 00:56:09;;;;;;;26.55;17.33;;;7.70;99.90;;;;;;5045411;28;20136;-68
2021/04/20 00:58:37;;;;;;;26.55;17.05;;;7.60;99.90;;;;;;5042153;28;20118;-68
2021/04/20 01:01:05;;;;;;;25.10;16.90;;;7.60;99.90;;;;;;5049001;28;20041;-68
2021/04/20 01:03:32;;;;;;;25.50;16.45;;;7.60;99.90;;;;;;5051619;28;20056;-68
2021/04/20 01:06:01;;;;;;;23.52;15.90;;;7.60;99.90;;;;;;5049901;28;20110;-68
2021/04/20 01:08:28;;;;;;;23.77;17.20;;;7.60;99.90;;;;;;5051799;28;20057;-68
2021/04/20 01:10:58;;;;;;;25.95;17.40;;;7.60;99.90;;;;;;5049053;28;20068;-68
2021/04/20 01:13:31;;;;;;;24.80;16.88;;;7.60;99.90;;;;;;5039277;28;20462;-68
2021/04/20 01:15:59;;;;;;;30.77;18.17;;;7.60;99.90;;;;;;5048991;28;20492;-67
2021/04/20 01:18:31;;;;;;;25.85;18.05;;;7.60;99.90;;;;;;5046139;28;20060;-67
2021/04/20 01:21:03;;;;;;;29.02;18.52;;;7.60;99.90;;;;;;5046692;28;20056;-68
2021/04/20 01:23:42;;;;;;;27.67;17.52;;;7.60;99.90;;;;;;5049583;28;20056;-68
2021/04/20 01:26:10;;;;;;;28.10;18.20;;;7.60;99.90;;;;;;5047301;28;20126;-67
2021/04/20 01:28:37;;;;;;;28.73;18.92;;;7.60;99.90;;;;;;5050781;28;20049;-68
2021/04/20 01:31:05;;;;;;;27.60;19.15;;;7.60;99.90;;;;;;5036010;28;20049;-68
2021/04/20 01:33:32;;;;;;;28.63;18.77;;;7.50;99.90;;;;;;5047206;28;20140;-67
2021/04/20 01:35:59;;;;;;;29.48;19.83;;;7.50;99.90;;;;;;5050821;28;20503;-69
2021/04/20 01:38:30;;;;;;;31.67;20.08;;;7.50;99.90;;;;;;5038397;28;20072;-68
2021/04/20 01:40:59;;;;;;;32.65;20.58;;;7.50;99.90;;;;;;5049153;28;20214;-68
2021/04/20 01:43:26;;;;;;;27.15;18.67;;;7.50;99.90;;;;;;5046022;28;20438;-68
2021/04/20 01:45:54;;;;;;;28.15;19.05;;;7.50;99.90;;;;;;5043536;28;20049;-68
2021/04/20 01:48:22;;;;;;;31.08;19.88;;;7.50;99.90;;;;;;5048290;28;20756;-68
2021/04/20 01:50:49;;;;;;;30.27;19.92;;;7.50;99.90;;;;;;5050541;28;20049;-68
2021/04/20 01:53:16;;;;;;;27.75;18.88;;;7.40;99.90;;;;;;5046158;28;20392;-68
2021/04/20 01:55:42;;;;;;;32.55;21.58;;;7.40;99.90;;;;;;5046672;28;20120;-68
2021/04/20 01:58:10;;;;;;;29.67;19.27;;;7.40;99.90;;;;;;5050293;28;20118;-68
2021/04/20 02:00:37;;;;;;;29.90;19.08;;;7.30;99.90;;;;;;5049407;28;20044;-68
2021/04/20 02:03:07;;;;;;;28.33;19.02;;;7.30;99.90;;;;;;5039258;28;20138;-68
2021/04/20 02:05:36;;;;;;;36.70;22.38;;;7.30;99.90;;;;;;5050457;28;20057;-68
2021/04/20 02:08:04;;;;;;;30.27;20.83;;;7.30;99.90;;;;;;5050535;28;20048;-68
2021/04/20 02:10:32;;;;;;;35.33;21.55;;;7.20;99.90;;;;;;5042698;28;20067;-68
2021/04/20 02:12:59;;;;;;;32.75;19.85;;;7.20;99.90;;;;;;5050791;28;20049;-68
2021/04/20 02:15:26;;;;;;;29.95;19.52;;;7.20;99.90;;;;;;5039034;28;20053;-68
2021/04/20 02:17:56;;;;;;;33.40;19.63;;;7.20;99.90;;;;;;5046063;28;20049;-68
2021/04/20 02:20:24;;;;;;;28.45;19.50;;;7.30;99.90;;;;;;5049792;28;20079;-68
2021/04/20 02:22:51;;;;;;;33.95;21.55;;;7.30;99.90;;;;;;5050640;28;20081;-68
2021/04/20 02:25:19;;;;;;;35.00;22.48;;;7.30;99.90;;;;;;5043422;28;20057;-69
2021/04/20 02:27:49;;;;;;;33.22;21.17;;;7.30;99.90;;;;;;5048317;28;20053;-69
2021/04/20 02:30:17;;;;;;;33.33;20.33;;;7.20;99.90;;;;;;5047496;28;20064;-69
2021/04/20 02:32:45;;;;;;;33.75;21.20;;;7.30;99.90;;;;;;5050053;28;20053;-68
2021/04/20 02:35:15;;;;;;;37.80;21.95;;;7.20;99.90;;;;;;5035153;28;20067;-68
2021/04/20 02:37:43;;;;;;;31.25;20.30;;;7.20;99.90;;;;;;5028829;28;20540;-68
2021/04/20 02:40:17;;;;;;;31.05;20.58;;;7.30;99.90;;;;;;5052530;28;20049;-67
2021/04/20 02:42:44;;;;;;;36.33;22.00;;;7.30;99.90;;;;;;5039908;28;20091;-68
2021/04/20 02:45:12;;;;;;;30.80;19.42;;;7.30;99.90;;;;;;5047535;28;20072;-68
2021/04/20 02:47:39;;;;;;;29.98;19.23;;;7.30;99.90;;;;;;5049149;28;20053;-68
2021/04/20 02:50:14;;;;;;;29.65;19.85;;;7.30;99.90;;;;;;5051542;28;20072;-69
2021/04/20 02:52:43;;;;;;;32.35;20.60;;;7.30;99.90;;;;;;5048060;28;20099;-68
2021/04/20 02:55:11;;;;;;;28.85;19.75;;;7.30;99.90;;;;;;5041402;28;20041;-69
2021/04/20 02:57:40;;;;;;;29.98;19.88;;;7.20;99.90;;;;;;5051513;28;20102;-69
2021/04/20 03:00:14;;;;;;;29.67;19.88;;;7.20;99.90;;;;;;5042812;28;20419;-69
2021/04/20 03:02:44;;;;;;;32.28;20.63;;;7.20;99.90;;;;;;5053292;28;20107;-67
2021/04/20 03:05:16;;;;;;;31.42;19.90;;;7.20;99.90;;;;;;5053768;28;20052;-68
2021/04/20 03:07:44;;;;;;;31.08;20.40;;;7.20;99.90;;;;;;5053547;28;20057;-68
2021/04/20 03:10:14;;;;;;;31.60;21.08;;;7.20;99.90;;;;;;5054226;28;20111;-68
2021/04/20 03:12:41;;;;;;;32.15;20.88;;;7.20;99.90;;;;;;5052669;28;20166;-68
2021/04/20 03:15:11;;;;;;;34.95;21.00;;;7.10;99.90;;;;;;5054161;28;20106;-68
2021/04/20 03:17:40;;;;;;;30.83;20.30;;;7.10;99.90;;;;;;5035584;28;20123;-68
2021/04/20 03:20:08;;;;;;;31.23;19.58;;;7.10;99.90;;;;;;5052680;28;20063;-68
2021/04/20 03:22:36;;;;;;;28.65;19.92;;;7.10;99.90;;;;;;5052158;28;20061;-68
2021/04/20 03:25:41;;;;;;;31.95;19.80;;;7.10;99.90;;;;;;5040706;28;20518;-68
2021/04/20 03:28:09;;;;;;;35.83;20.25;;;7.10;99.90;;;;;;5032063;28;20057;-68
2021/04/20 03:30:36;;;;;;;31.90;19.63;;;7.10;99.90;;;;;;5053043;28;20049;-68
2021/04/20 03:33:32;;;;;;;30.27;19.52;;;7.10;99.90;;;;;;5039661;28;20443;-68
2021/04/20 03:36:11;;;;;;;30.58;20.27;;;7.10;99.90;;;;;;5037138;28;20077;-68
2021/04/20 03:39:04;;;;;;;30.45;20.13;;;7.00;99.90;;;;;;5047607;28;20053;-67
2021/04/20 03:41:46;;;;;;;29.85;19.98;;;7.00;99.90;;;;;;5051640;28;20086;-68
2021/04/20 03:44:16;;;;;;;34.13;21.15;;;7.00;99.90;;;;;;5042864;28;20087;-68
2021/04/20 03:46:46;;;;;;;31.80;20.23;;;7.00;99.90;;;;;;5041308;28;20049;-68
2021/04/20 03:49:29;;;;;;;31.30;20.33;;;7.00;99.90;;;;;;5050362;28;20583;-68
2021/04/20 03:51:58;;;;;;;32.10;20.38;;;7.00;99.90;;;;;;5051208;28;20562;-68
2021/04/20 03:54:26;;;;;;;33.05;20.50;;;7.00;99.90;;;;;;5046393;28;20111;-68
2021/04/20 03:56:57;;;;;;;30.90;20.00;;;7.00;99.90;;;;;;5043665;28;20131;-68
2021/04/20 03:59:26;;;;;;;31.92;19.90;;;7.00;99.90;;;;;;5047388;28;20046;-68
2021/04/20 04:01:57;;;;;;;30.73;19.83;;;7.00;99.90;;;;;;5042859;28;20126;-68
2021/04/20 04:04:27;;;;;;;36.50;22.83;;;7.10;99.90;;;;;;5038189;28;20056;-68
2021/04/20 04:06:55;;;;;;;36.63;21.92;;;7.00;99.90;;;;;;5034012;28;20084;-68
2021/04/20 04:09:27;;;;;;;34.63;21.83;;;7.00;99.90;;;;;;5039898;28;20053;-68
2021/04/20 04:12:03;;;;;;;32.75;22.13;;;7.00;99.90;;;;;;5050845;28;20134;-68
2021/04/20 04:14:32;;;;;;;32.33;21.05;;;7.00;99.90;;;;;;5050829;28;20103;-68
2021/04/20 04:17:06;;;;;;;30.65;19.65;;;7.00;99.90;;;;;;5046899;28;20487;-68
2021/04/20 04:19:59;;;;;;;32.58;20.80;;;7.00;99.90;;;;;;5050861;28;20040;-68
2021/04/20 04:22:30;;;;;;;37.33;22.48;;;7.00;99.90;;;;;;5044629;28;20098;-68
2021/04/20 04:24:59;;;;;;;32.42;20.85;;;6.90;99.90;;;;;;5040141;28;20103;-69
2021/04/20 04:27:38;;;;;;;38.78;24.40;;;6.90;99.90;;;;;;5046692;28;20906;-67
2021/04/20 04:30:10;;;;;;;34.92;22.52;;;6.80;99.90;;;;;;5048207;28;20060;-68
2021/04/20 04:32:43;;;;;;;33.63;22.55;;;6.70;99.90;;;;;;5051344;28;20048;-68
2021/04/20 04:35:11;;;;;;;36.47;21.17;;;6.70;99.90;;;;;;5031844;28;20055;-68
2021/04/20 04:37:41;;;;;;;35.70;22.02;;;6.60;99.90;;;;;;5038940;28;20055;-68
2021/04/20 04:40:09;;;;;;;34.50;22.00;;;6.60;99.90;;;;;;5038776;28;20099;-68
2021/04/20 04:42:36;;;;;;;37.20;22.70;;;6.60;99.90;;;;;;5031603;28;20512;-68
2021/04/20 04:45:08;;;;;;;32.85;21.55;;;6.60;99.90;;;;;;5056379;28;20041;-68
2021/04/20 04:47:37;;;;;;;34.40;21.40;;;6.60;99.90;;;;;;5051321;28;20047;-67
2021/04/20 04:50:09;;;;;;;35.15;22.00;;;6.60;99.90;;;;;;5038088;28;20049;-68
2021/04/20 04:52:38;;;;;;;36.50;22.33;;;6.50;99.90;;;;;;5050647;28;20049;-68
2021/04/20 04:55:08;;;;;;;33.67;21.98;;;6.50;99.90;;;;;;5042275;28;20056;-68
2021/04/20 04:57:36;;;;;;;32.78;20.65;;;6.60;99.90;;;;;;5042149;28;20040;-69
2021/04/20 05:00:15;;;;;;;33.88;21.35;;;6.60;99.90;;;;;;5051263;28;20056;-67
2021/04/20 05:02:43;;;;;;;34.50;21.83;;;6.60;99.90;;;;;;5044505;28;20566;-68
2021/04/20 05:05:14;;;;;;;32.50;20.55;;;6.60;99.90;;;;;;5047583;28;20503;-67
2021/04/20 05:07:42;;;;;;;33.03;21.70;;;6.60;99.90;;;;;;5048319;28;20057;-68
2021/04/20 05:10:13;;;;;;;30.90;20.38;;;6.60;99.90;;;;;;5051644;28;20488;-68
2021/04/20 05:12:40;;;;;;;32.55;20.73;;;6.60;99.90;;;;;;5046475;28;20107;-68
2021/04/20 05:15:12;;;;;;;32.05;20.90;;;6.70;99.90;;;;;;5047853;28;20397;-68
2021/04/20 05:17:41;;;;;;;31.70;20.90;;;6.70;99.90;;;;;;5037948;28;20488;-68
2021/04/20 05:20:11;;;;;;;33.33;20.80;;;6.70;99.90;;;;;;5051574;28;20122;-68
2021/04/20 05:22:38;;;;;;;37.50;25.30;;;6.70;99.90;;;;;;5050296;28;20131;-68
2021/04/20 05:25:14;;;;;;;37.58;24.30;;;6.80;99.90;;;;;;5048764;28;20053;-68
2021/04/20 05:27:42;;;;;;;33.10;21.88;;;6.80;99.90;;;;;;5050723;28;20056;-68
2021/04/20 05:30:11;;;;;;;31.63;20.92;;;6.80;99.90;;;;;;5051427;28;20124;-68
2021/04/20 05:32:45;;;;;;;37.88;23.17;;;6.90;99.90;;;;;;5044405;28;20088;-68
2021/04/20 05:35:12;;;;;;;36.63;22.30;;;7.00;99.90;;;;;;5043354;28;20053;-68
2021/04/20 05:37:41;;;;;;;42.38;24.92;;;7.00;99.90;;;;;;5039865;28;20053;-68
2021/04/20 05:40:14;;;;;;;38.22;22.98;;;7.10;99.90;;;;;;5032692;28;20049;-69
2021/04/20 05:42:42;;;;;;;41.22;24.33;;;7.10;99.90;;;;;;5036550;28;20041;-68
2021/04/20 05:45:11;;;;;;;41.83;24.85;;;7.20;99.90;;;;;;5037186;28;20057;-68
2021/04/20 05:47:43;;;;;;;38.17;23.02;;;7.20;99.90;;;;;;5033910;28;20049;-68
2021/04/20 05:50:13;;;;;;;42.27;24.63;;;7.30;99.90;;;;;;5036014;28;20045;-68
2021/04/20 05:52:40;;;;;;;43.35;26.73;;;7.40;99.90;;;;;;5035592;28;20132;-69
2021/04/20 05:55:07;;;;;;;38.63;22.92;;;7.40;99.90;;;;;;5031713;28;20076;-69
2021/04/20 05:57:35;;;;;;;47.38;26.67;;;7.40;99.90;;;;;;5043324;28;20456;-68
2021/04/20 06:00:07;;;;;;;38.22;24.30;;;7.40;99.90;;;;;;5043732;28;20071;-68
2021/04/20 06:02:42;;;;;;;35.45;22.00;;;7.50;99.90;;;;;;5050237;28;20500;-68
2021/04/20 06:05:15;;;;;;;36.53;23.88;;;7.60;99.90;;;;;;5044759;28;20091;-69
2021/04/20 06:07:48;;;;;;;37.67;23.58;;;7.70;99.90;;;;;;5042355;28;20455;-68
2021/04/20 06:10:16;;;;;;;35.92;24.23;;;7.80;99.90;;;;;;5043536;28;20057;-68
2021/04/20 06:12:44;;;;;;;37.95;24.23;;;7.90;99.90;;;;;;5038838;28;20045;-70
2021/04/20 06:15:14;;;;;;;40.47;25.45;;;8.00;99.90;;;;;;5045130;28;20069;-70
2021/04/20 06:17:44;;;;;;;40.13;25.43;;;7.90;99.90;;;;;;5047256;28;20055;-69
2021/04/20 06:20:14;;;;;;;42.25;25.63;;;7.90;99.90;;;;;;5047922;28;20088;-69
2021/04/20 06:22:45;;;;;;;36.92;24.50;;;7.90;99.90;;;;;;5047338;28;20042;-70
2021/04/20 06:25:17;;;;;;;39.97;24.75;;;8.00;99.90;;;;;;5046645;28;20057;-69
2021/04/20 06:27:47;;;;;;;38.28;25.45;;;8.20;99.90;;;;;;5040356;28;20083;-69
2021/04/20 06:30:15;;;;;;;37.28;24.98;;;8.20;99.90;;;;;;5043629;28;20365;-69
2021/04/20 06:32:44;;;;;;;37.10;24.30;;;8.30;99.90;;;;;;5033067;28;20037;-69
2021/04/20 06:35:16;;;;;;;42.37;25.00;;;8.30;99.90;;;;;;5036662;28;20053;-69
2021/04/20 06:37:45;;;;;;;33.50;23.35;;;8.40;99.90;;;;;;5038089;28;20506;-69
2021/04/20 06:40:16;;;;;;;32.72;22.42;;;8.50;99.90;;;;;;5035847;28;20111;-69
2021/04/20 06:42:53;;;;;;;36.15;23.50;;;8.50;99.90;;;;;;5046682;28;20060;-69
2021/04/20 06:45:30;;;;;;;40.53;26.13;;;8.40;99.90;;;;;;5055375;28;20064;-69
2021/04/20 06:48:06;;;;;;;38.60;24.67;;;8.20;99.90;;;;;;5037258;28;20048;-69
2021/04/20 06:50:37;;;;;;;36.35;23.45;;;8.20;99.90;;;;;;5046844;28;20045;-70
2021/04/20 06:53:08;;;;;;;38.63;24.92;;;8.10;99.90;;;;;;5036729;28;20065;-69
2021/04/20 06:55:52;;;;;;;35.13;23.33;;;7.90;99.90;;;;;;5036793;28;20045;-69
2021/04/20 06:58:24;;;;;;;35.50;23.60;;;8.00;99.90;;;;;;5042524;28;20045;-69
2021/04/20 07:00:55;;;;;;;34.33;23.85;;;8.10;99.90;;;;;;5039846;28;20052;-68
2021/04/20 07:03:48;;;;;;;35.42;22.92;;;8.20;99.90;;;;;;5043315;28;20400;-69
2021/04/20 07:06:32;;;;;;;35.25;23.20;;;8.40;99.90;;;;;;5042899;28;20057;-70
2021/04/20 07:09:12;;;;;;;33.78;23.00;;;8.50;99.90;;;;;;5044338;28;20065;-68
2021/04/20 07:11:44;;;;;;;40.00;25.15;;;8.60;99.90;;;;;;5036179;28;20048;-69
2021/04/20 07:14:15;;;;;;;;;;;8.70;99.90;;;;;;5044319;28;20057;-68
2021/04/20 07:16:59;;;;;;;37.47;23.90;;;8.70;99.90;;;;;;5041044;28;19986;-70
2021/04/20 07:19:57;;;;;;;36.75;24.25;;;8.90;99.90;;;;;;5022426;28;20448;-68
2021/04/20 07:23:00;;;;;;;37.38;24.20;;;9.00;99.90;;;;;;5044354;28;20056;-68
2021/04/20 07:25:59;;;;;;;34.17;23.33;;;9.10;99.90;;;;;;5027244;28;20480;-68
2021/04/20 07:29:05;;;;;;;39.15;25.42;;;9.30;99.90;;;;;;5021875;28;20055;-68
2021/04/20 07:31:43;;;;;;;36.33;24.27;;;9.30;99.90;;;;;;5040336;28;20561;-68
2021/04/20 07:34:48;;;;;;;38.10;24.48;;;9.30;99.90;;;;;;5042199;28;20128;-68
2021/04/20 07:37:47;;;;;;;37.22;24.98;;;9.40;99.90;;;;;;5041215;28;20061;-69
2021/04/20 07:40:44;;;;;;;40.60;27.60;;;9.40;99.90;;;;;;5033208;28;20053;-69
2021/04/20 07:43:50;;;;;;;41.47;26.83;;;9.40;99.90;;;;;;5039769;28;20133;-69
2021/04/20 07:46:30;;;;;;;43.58;28.15;;;9.40;99.90;;;;;;5041834;28;20190;-69
2021/04/20 07:49:12;;;;;;;43.50;28.05;;;9.50;99.90;;;;;;5042335;28;20060;-69
2021/04/20 07:51:54;;;;;;;40.33;27.65;;;9.60;99.90;;;;;;5038763;28;20059;-68
2021/04/20 07:54:56;;;;;;;41.75;27.42;;;9.80;99.90;;;;;;5043832;28;20052;-70
2021/04/20 07:57:34;;;;;;;40.33;26.58;;;10.10;99.90;;;;;;5040506;28;20053;-68
2021/04/20 08:00:19;;;;;;;45.63;27.67;;;10.30;99.90;;;;;;5045963;28;20566;-69
2021/04/20 08:03:20;;;;;;;40.80;27.17;;;10.30;99.90;;;;;;5034966;28;20048;-69
2021/04/20 08:06:20;;;;;;;39.58;26.73;;;10.50;99.90;;;;;;5032358;28;20094;-68
2021/04/20 08:08:50;;;;;;;43.83;26.87;;;10.60;99.90;;;;;;5034969;28;20049;-69
2021/04/20 08:11:29;;;;;;;43.20;28.20;;;10.80;99.90;;;;;;5036807;28;20145;-69
2021/04/20 08:14:19;;;;;;;40.53;28.27;;;11.10;99.90;;;;;;5040530;28;20053;-69
2021/04/20 08:16:50;;;;;;;43.25;27.95;;;11.00;99.90;;;;;;5038896;28;20546;-69
2021/04/20 08:19:30;;;;;;;45.63;30.07;;;11.10;99.90;;;;;;5040399;28;20053;-68
2021/04/20 08:22:12;;;;;;;44.38;29.00;;;11.10;99.90;;;;;;5045781;28;20044;-69
2021/04/20 08:24:55;;;;;;;45.63;30.02;;;11.20;99.90;;;;;;5050124;28;20535;-68
2021/04/20 08:27:30;;;;;;;48.20;30.38;;;11.50;99.90;;;;;;5050947;28;20444;-68
2021/04/20 08:30:05;;;;;;;47.83;30.98;;;11.70;99.90;;;;;;5051147;28;20364;-69
2021/04/20 08:32:34;;;;;;;45.80;30.65;;;11.80;99.90;;;;;;5051123;28;20075;-68
2021/04/20 08:35:07;;;;;;;47.70;32.25;;;11.80;99.90;;;;;;5029354;28;20100;-68
2021/04/20 08:38:03;;;;;;;48.38;32.70;;;11.90;99.90;;;;;;5037210;28;20045;-69
2021/04/20 08:41:02;;;;;;;45.92;31.95;;;12.10;99.90;;;;;;5046196;28;20087;-69
2021/04/20 08:43:40;;;;;;;51.38;33.10;;;12.20;99.90;;;;;;5043971;28;20415;-69
2021/04/20 08:46:37;;;;;;;49.65;32.65;;;12.20;99.90;;;;;;5044103;28;20045;-69
2021/04/20 08:49:21;;;;;;;50.75;33.38;;;12.30;99.90;;;;;;5061173;28;20124;-69
2021/04/20 08:52:01;;;;;;;47.47;32.10;;;12.20;99.90;;;;;;5047754;28;20454;-69
2021/04/20 08:55:06;;;;;;;48.42;32.47;;;12.10;99.90;;;;;;5051500;28;20049;-69
2021/04/20 08:57:42;;;;;;;49.83;33.03;;;12.30;99.90;;;;;;5035243;28;20486;-69
2021/04/20 09:00:23;;;;;;;49.95;32.45;;;12.30;99.90;;;;;;5049695;28;20130;-68
2021/04/20 09:03:16;;;;;;;46.75;32.40;;;12.30;99.90;;;;;;5049761;28;20052;-69
2021/04/20 09:05:54;;;;;;;45.35;32.00;;;12.50;99.90;;;;;;5051924;28;20420;-69
2021/04/20 09:08:36;;;;;;;41.88;30.38;;;12.50;99.90;;;;;;5049914;28;20122;-68
2021/04/20 09:11:11;;;;;;;48.90;33.00;;;12.40;99.90;;;;;;5049287;28;20582;-69
2021/04/20 09:13:50;;;;;;;44.33;31.65;;;12.30;99.90;;;;;;5046139;28;20128;-69
2021/04/20 09:16:39;;;;;;;42.97;30.95;;;12.40;99.90;;;;;;5048230;28;20480;-69
2021/04/20 09:19:17;;;;;;;41.08;29.25;;;12.60;99.90;;;;;;5040317;28;20041;-69
2021/04/20 09:22:06;;;;;;;38.85;28.25;;;12.90;99.90;;;;;;5050779;28;20045;-69
2021/04/20 09:24:44;;;;;;;42.95;30.95;;;13.20;99.90;;;;;;5051001;28;20053;-69
2021/04/20 09:27:28;;;;;;;44.55;30.95;;;13.50;99.90;;;;;;5038290;28;20404;-69
2021/04/20 09:29:57;;;;;;;43.53;29.88;;;13.50;99.90;;;;;;5045579;28;20041;-69
2021/04/20 09:32:55;;;;;;;41.88;28.73;;;13.50;99.90;;;;;;5043592;28;20496;-69
2021/04/20 09:35:24;;;;;;;37.67;28.30;;;13.40;99.90;;;;;;5039623;28;20148;-69
2021/04/20 09:37:53;;;;;;;35.92;26.42;;;13.40;99.90;;;;;;5049616;28;20458;-69
2021/04/20 09:40:22;;;;;;;36.70;26.45;;;13.40;99.90;;;;;;5049378;28;20098;-69
2021/04/20 09:42:57;;;;;;;37.13;27.80;;;13.50;99.90;;;;;;5045646;28;20067;-69
2021/04/20 09:45:36;;;;;;;40.47;29.25;;;13.40;99.90;;;;;;5050570;28;20049;-69
2021/04/20 09:48:10;;;;;;;39.00;29.33;;;13.40;99.90;;;;;;5048070;28;20076;-69
2021/04/20 09:51:07;;;;;;;42.03;29.55;;;13.50;99.90;;;;;;5045789;28;20049;-69
2021/04/20 09:54:00;;;;;;;39.63;28.20;;;13.40;99.90;;;;;;5047451;28;20423;-69
2021/04/20 09:56:53;;;;;;;45.28;30.60;;;13.60;99.90;;;;;;5019993;28;20053;-69
2021/04/20 09:59:38;;;;;;;42.03;29.60;;;13.70;99.90;;;;;;5049096;28;20049;-68
2021/04/20 10:02:23;;;;;;;40.92;29.10;;;13.80;99.90;;;;;;5050598;28;20537;-69
2021/04/20 10:04:52;;;;;;;39.78;29.50;;;13.90;99.90;;;;;;5046192;28;20120;-68
2021/04/20 10:07:22;;;;;;;33.72;26.13;;;13.90;99.90;;;;;;5049607;28;20072;-69
2021/04/20 10:10:20;;;;;;;38.50;28.75;;;14.30;99.90;;;;;;5040904;28;20495;-69
2021/04/20 10:13:17;;;;;;;38.33;28.67;;;14.60;99.90;;;;;;5046550;28;20057;-68
2021/04/20 10:15:56;;;;;;;43.53;30.73;;;14.50;99.90;;;;;;5051155;28;20049;-69
2021/04/20 10:18:50;;;;;;;37.42;28.67;;;14.60;99.90;;;;;;5048487;28;20511;-69
2021/04/20 10:21:39;;;;;;;35.67;27.67;;;14.60;99.90;;;;;;5045854;28;20053;-69
2021/04/20 10:24:23;;;;;;;33.72;25.65;;;14.40;99.90;;;;;;5048211;28;20605;-69
2021/04/20 10:26:56;;;;;;;32.20;24.60;;;14.30;99.90;;;;;;5042412;28;20064;-69
2021/04/20 10:29:40;;;;;;;32.58;23.90;;;14.40;99.90;;;;;;5043408;28;20486;-69
2021/04/20 10:32:14;;;;;;;30.90;24.55;;;14.80;99.90;;;;;;5043416;28;20134;-69
2021/04/20 10:35:03;;;;;;;35.88;27.48;;;15.00;99.90;;;;;;5049999;28;20484;-69
2021/04/20 10:37:49;;;;;;;34.35;27.40;;;15.20;99.90;;;;;;5044931;28;20419;-69
2021/04/20 10:40:36;;;;;;;35.33;26.02;;;15.40;99.90;;;;;;5032897;28;20128;-69
2021/04/20 10:43:09;;;;;;;31.23;24.60;;;15.40;99.90;;;;;;5050003;28;20063;-69
2021/04/20 10:45:37;;;;;;;32.75;26.00;;;15.40;99.90;;;;;;5056351;28;20064;-69
2021/04/20 10:48:05;;;;;;;31.48;24.38;;;15.40;99.90;;;;;;5050411;28;20064;-69
2021/04/20 10:50:34;;;;;;;29.38;24.27;;;15.30;99.90;;;;;;5045817;28;20052;-70
2021/04/20 10:53:34;;;;;;;32.63;24.48;;;15.40;99.90;;;;;;5046236;28;20049;-69
2021/04/20 10:56:08;;;;;;;29.77;23.65;;;15.40;99.90;;;;;;5048605;28;20064;-67
2021/04/20 10:58:45;;;;;;;30.27;24.25;;;15.60;99.90;;;;;;5049237;28;20147;-70
2021/04/20 11:01:19;;;;;;;31.38;24.63;;;15.80;99.90;;;;;;5053766;28;20049;-70
2021/04/20 11:03:49;;;;;;;32.72;25.75;;;16.20;99.90;;;;;;5049656;28;20083;-70
2021/04/20 11:06:53;;;;;;;29.83;24.17;;;16.60;99.90;;;;;;5050158;28;20064;-69
2021/04/20 11:09:31;;;;;;;32.63;26.10;;;16.70;99.90;;;;;;5049805;28;20140;-70
2021/04/20 11:11:59;;;;;;;28.98;24.75;;;16.90;99.90;;;;;;5050146;28;20425;-70
2021/04/20 11:14:43;;;;;;;29.17;24.25;;;16.90;99.90;;;;;;5049959;28;20060;-70
2021/04/20 11:17:22;;;;;;;30.98;24.95;;;17.00;99.90;;;;;;5051210;28;20091;-70
2021/04/20 11:20:09;;;;;;;30.98;25.55;;;17.30;99.90;;;;;;5050367;28;20068;-70
2021/04/20 11:22:53;;;;;;;27.45;23.25;;;17.50;99.90;;;;;;5051344;28;20099;-69
2021/04/20 11:25:33;;;;;;;26.90;23.98;;;17.80;99.90;;;;;;5042415;28;20091;-69
2021/04/20 11:28:09;;;;;;;26.75;21.98;;;18.10;99.90;;;;;;5049164;28;20049;-69
2021/04/20 11:30:39;;;;;;;26.13;23.33;;;18.40;99.90;;;;;;5053565;28;20098;-70
2021/04/20 11:33:12;;;;;;;26.92;24.02;;;18.40;99.90;;;;;;5041578;28;20077;-70
2021/04/20 11:35:46;;;;;;;25.52;22.83;;;18.60;99.90;;;;;;5046439;28;20046;-70
2021/04/20 11:38:16;;;;;;;28.23;24.33;;;19.00;99.90;;;;;;5033221;28;20507;-69
2021/04/20 11:40:51;;;;;;;29.45;25.45;;;19.30;99.90;;;;;;5040374;28;20056;-69
2021/04/20 11:43:18;;;;;;;29.50;24.35;;;18.90;99.90;;;;;;5045572;28;20557;-69
2021/04/20 11:45:46;;;;;;;26.50;23.23;;;18.60;99.90;;;;;;5040065;28;20582;-69
2021/04/20 11:48:20;;;;;;;26.58;23.77;;;18.70;99.90;;;;;;5031014;28;20526;-69
2021/04/20 11:51:13;;;;;;;27.33;23.45;;;18.80;99.90;;;;;;5036017;28;20049;-70
2021/04/20 11:53:43;;;;;;;27.65;24.50;;;19.00;99.90;;;;;;5039590;28;20080;-70
2021/04/20 11:56:11;;;;;;;27.38;24.15;;;19.00;99.90;;;;;;5045014;28;20076;-70
2021/04/20 11:58:41;;;;;;;28.73;23.95;;;18.80;99.90;;;;;;5038434;28;20126;-69
2021/04/20 12:01:24;;;;;;;28.73;23.80;;;18.20;99.90;;;;;;5044121;28;20414;-69
2021/04/20 12:04:00;;;;;;;24.60;21.95;;;17.80;99.90;;;;;;5039329;28;20041;-69
2021/04/20 12:06:57;;;;;;;25.73;22.25;;;17.70;99.90;;;;;;5040078;28;20049;-70
2021/04/20 12:09:28;;;;;;;24.30;21.70;;;17.80;99.90;;;;;;5023759;28;20136;-69
2021/04/20 12:11:56;;;;;;;26.08;21.33;;;18.10;99.90;;;;;;5041462;28;20451;-69
2021/04/20 12:14:29;;;;;;;26.05;21.92;;;18.20;99.90;;;;;;5040692;28;20057;-69
2021/04/20 12:16:57;;;;;;;23.90;20.30;;;18.20;99.90;;;;;;5050823;28;20045;-69
2021/04/20 12:19:30;;;;;;;23.02;20.45;;;18.30;99.90;;;;;;5038990;28;20046;-68
2021/04/20 12:22:02;;;;;;;24.30;21.70;;;18.80;99.90;;;;;;5044687;28;20127;-70
2021/04/20 12:24:30;;;;;;;24.15;21.50;;;19.30;99.90;;;;;;5042019;28;20467;-69
2021/04/20 12:27:01;;;;;;;23.33;20.83;;;19.80;99.90;;;;;;5043040;28;20057;-69
2021/04/20 12:29:43;;;;;;;23.90;21.35;;;20.40;99.90;;;;;;5031774;28;20057;-69
2021/04/20 12:32:23;;;;;;;30.92;22.67;;;20.90;99.80;;;;;;5035705;28;20076;-69
2021/04/20 12:35:02;;;;;;;25.38;22.70;;;19.90;99.90;;;;;;5031992;28;20524;-69
2021/04/20 12:37:38;;;;;;;26.80;22.98;;;19.30;99.90;;;;;;5035530;28;20140;-69
2021/04/20 12:40:13;;;;;;;25.02;22.50;;;19.40;99.90;;;;;;5041275;28;20420;-69
2021/04/20 12:42:46;;;;;;;25.23;22.50;;;19.40;99.90;;;;;;5045154;28;20044;-70
2021/04/20 12:45:18;;;;;;;24.27;21.77;;;19.30;99.90;;;;;;5059420;28;20053;-70
2021/04/20 12:47:46;;;;;;;26.00;22.95;;;19.60;99.90;;;;;;5036711;28;20045;-70
2021/04/20 12:50:21;;;;;;;25.08;22.48;;;19.80;99.90;;;;;;5039208;28;20137;-70
2021/04/20 12:52:49;;;;;;;23.83;21.42;;;20.20;99.80;;;;;;5045673;28;20072;-70
2021/04/20 12:55:24;;;;;;;21.92;19.80;;;21.00;99.10;;;;;;5050357;28;20114;-69
2021/04/20 12:57:53;;;;;;;23.70;21.30;;;21.30;96.70;;;;;;5044218;28;20045;-69
2021/04/20 13:00:27;;;;;;;21.27;18.73;;;21.00;95.70;;;;;;5043793;28;20056;-70
2021/04/20 13:02:58;;;;;;;21.55;18.67;;;20.50;94.50;;;;;;5049089;28;20458;-70
2021/04/20 13:05:36;;;;;;;22.15;19.85;;;20.70;95.60;;;;;;5043663;28;20045;-70
2021/04/20 13:08:05;;;;;;;22.02;19.83;;;21.20;94.60;;;;;;5050369;28;20503;-70
2021/04/20 13:10:34;;;;;;;23.73;21.25;;;20.70;94.30;;;;;;5050356;28;20407;-70
2021/04/20 13:13:07;;;;;;;21.60;19.40;;;20.60;94.70;;;;;;5050385;28;20045;-70